Time;durP1;ratioP1;P1;durP2;ratioP2;P2;SDS_P1;SDS_P2;PMS_P1;PMS_P2;Temp;Humidity;BMP_temperature;BMP_pressure;BME280_temperature;BME280_humidity;BME280_pressure;Samples;Min_cycle;Max_cycle;Signal;HPM_P1;HPM_P2
2022/06/28 00:01:55;;;;;;;13.43;12.07;;;15.20;99.90;;;;;;5005582;28;20448;-73
2022/06/28 00:04:21;;;;;;;13.63;11.50;;;15.20;99.90;;;;;;4991095;28;20493;-73
2022/06/28 00:06:47;;;;;;;14.88;12.02;;;15.20;99.90;;;;;;5006761;28;20050;-73
2022/06/28 00:09:15;;;;;;;15.90;13.38;;;15.10;99.90;;;;;;5008807;28;20057;-73
2022/06/28 00:11:43;;;;;;;13.43;12.00;;;15.00;99.90;;;;;;5009868;28;20045;-73
2022/06/28 00:16:56;;;;;;;17.25;12.95;;;15.10;99.90;;;;;;5007783;28;20049;-73
2022/06/28 00:19:21;;;;;;;15.50;12.77;;;15.10;99.90;;;;;;5007631;28;20401;-74
2022/06/28 00:21:48;;;;;;;18.13;12.77;;;15.10;99.90;;;;;;5008607;28;20049;-73
2022/06/28 00:24:15;;;;;;;13.98;12.65;;;15.10;99.90;;;;;;5006840;28;20057;-73
2022/06/28 00:26:41;;;;;;;16.63;12.88;;;15.00;99.90;;;;;;5006421;28;20054;-73
2022/06/28 00:29:07;;;;;;;16.83;12.20;;;15.00;99.90;;;;;;5006553;28;20041;-74
2022/06/28 00:31:33;;;;;;;14.98;12.63;;;15.00;99.90;;;;;;5004602;28;20080;-73
2022/06/28 00:33:59;;;;;;;15.27;13.07;;;15.00;99.90;;;;;;5009491;28;20077;-73
2022/06/28 00:36:24;;;;;;;16.10;11.80;;;14.90;99.90;;;;;;5011606;28;20052;-73
2022/06/28 00:38:50;;;;;;;14.27;12.77;;;14.80;99.90;;;;;;5007953;28;21974;-73
2022/06/28 00:41:16;;;;;;;15.02;12.25;;;14.90;99.90;;;;;;5008666;28;20053;-73
2022/06/28 00:43:42;;;;;;;16.98;12.30;;;14.90;99.90;;;;;;5013242;28;20708;-73
2022/06/28 00:46:08;;;;;;;14.75;13.25;;;14.90;99.90;;;;;;5012094;28;20038;-73
2022/06/28 00:48:34;;;;;;;15.75;13.80;;;14.80;99.90;;;;;;5011326;28;20052;-73
2022/06/28 00:51:01;;;;;;;14.20;12.18;;;14.80;99.90;;;;;;5009922;28;20034;-73
2022/06/28 00:53:27;;;;;;;13.63;12.32;;;14.90;99.90;;;;;;5011505;28;20046;-74
2022/06/28 00:55:52;;;;;;;14.07;12.73;;;14.90;99.90;;;;;;5010168;28;20144;-74
2022/06/28 00:58:18;;;;;;;15.80;13.35;;;14.90;99.90;;;;;;5012339;28;20052;-73
2022/06/28 01:00:46;;;;;;;14.80;13.13;;;14.90;99.90;;;;;;5009664;28;20613;-73
2022/06/28 01:03:17;;;;;;;15.48;13.90;;;14.80;99.90;;;;;;5009605;28;20439;-73
2022/06/28 01:05:44;;;;;;;17.10;15.40;;;14.90;99.90;;;;;;5010589;28;20122;-74
2022/06/28 01:08:10;;;;;;;15.23;13.63;;;14.90;99.90;;;;;;5009221;28;20042;-73
2022/06/28 01:10:37;;;;;;;17.23;15.38;;;14.80;99.90;;;;;;5009506;28;20049;-73
2022/06/28 01:13:03;;;;;;;16.87;14.90;;;14.90;99.90;;;;;;5026891;28;20096;-74
2022/06/28 01:15:30;;;;;;;16.85;15.15;;;14.90;99.90;;;;;;5006532;28;20049;-73
2022/06/28 01:17:57;;;;;;;18.23;16.35;;;14.90;99.90;;;;;;5003463;28;20042;-73
2022/06/28 01:20:22;;;;;;;17.65;16.00;;;14.90;99.90;;;;;;5009998;28;20054;-74
2022/06/28 01:22:48;;;;;;;17.73;16.00;;;14.90;99.90;;;;;;5006013;28;20170;-73
2022/06/28 01:25:14;;;;;;;16.95;15.10;;;14.80;99.90;;;;;;5010902;28;20038;-73
2022/06/28 01:27:40;;;;;;;17.17;15.35;;;14.80;99.90;;;;;;5012064;28;20052;-73
2022/06/28 01:30:07;;;;;;;17.25;15.43;;;14.80;99.90;;;;;;5009432;28;20049;-73
2022/06/28 01:32:34;;;;;;;16.25;14.27;;;14.80;99.90;;;;;;5001863;28;20123;-73
2022/06/28 01:35:01;;;;;;;15.38;13.88;;;14.80;99.90;;;;;;5010283;28;20061;-73
2022/06/28 01:37:27;;;;;;;16.60;14.88;;;14.80;99.90;;;;;;5008553;28;20049;-73
2022/06/28 01:39:53;;;;;;;16.27;14.57;;;14.80;99.90;;;;;;5011360;28;20053;-73
2022/06/28 01:42:19;;;;;;;17.45;15.70;;;14.70;99.90;;;;;;5013756;28;20045;-73
2022/06/28 01:44:45;;;;;;;17.15;15.13;;;14.70;99.90;;;;;;5005620;28;20050;-73
2022/06/28 01:47:16;;;;;;;16.75;15.15;;;14.70;99.90;;;;;;4993447;28;20042;-73
2022/06/28 01:49:41;;;;;;;15.93;14.50;;;14.70;99.90;;;;;;4991898;28;20042;-73
2022/06/28 01:52:07;;;;;;;20.52;17.10;;;14.70;99.90;;;;;;4995238;28;20104;-73
2022/06/28 01:54:33;;;;;;;18.63;16.42;;;14.70;99.90;;;;;;5011428;28;20727;-74
2022/06/28 01:57:00;;;;;;;19.77;17.85;;;14.60;99.90;;;;;;5010622;28;20037;-73
2022/06/28 01:59:25;;;;;;;18.38;16.08;;;14.60;99.90;;;;;;5006655;28;20068;-73
2022/06/28 02:01:51;;;;;;;20.65;18.50;;;14.60;99.90;;;;;;5011358;28;20050;-73
2022/06/28 02:04:25;;;;;;;19.52;17.58;;;14.60;99.90;;;;;;4992710;28;20089;-73
2022/06/28 02:06:51;;;;;;;19.73;17.20;;;14.60;99.90;;;;;;4995576;28;20077;-73
2022/06/28 02:09:16;;;;;;;19.30;17.30;;;14.60;99.90;;;;;;5011407;28;20077;-73
2022/06/28 02:11:42;;;;;;;20.80;18.88;;;14.60;99.90;;;;;;4992981;28;20100;-73
2022/06/28 02:14:09;;;;;;;19.65;17.65;;;14.60;99.90;;;;;;5009026;28;20096;-73
2022/06/28 02:16:35;;;;;;;19.65;17.83;;;14.60;99.90;;;;;;5008880;28;20247;-73
2022/06/28 02:19:02;;;;;;;21.35;19.08;;;14.50;99.90;;;;;;5009949;28;20073;-74
2022/06/28 02:21:27;;;;;;;24.30;19.83;;;14.50;99.90;;;;;;5010281;28;20069;-73
2022/06/28 02:23:53;;;;;;;20.48;18.38;;;14.50;99.90;;;;;;5008453;28;20819;-73
2022/06/28 02:26:19;;;;;;;21.92;19.77;;;14.50;99.90;;;;;;5007628;28;20088;-74
2022/06/28 02:28:47;;;;;;;20.38;18.48;;;14.50;99.90;;;;;;5004701;28;20053;-73
2022/06/28 02:31:15;;;;;;;21.65;19.58;;;14.50;99.90;;;;;;5008202;28;20064;-73
2022/06/28 02:33:42;;;;;;;21.02;18.83;;;14.50;99.90;;;;;;5008603;28;20157;-73
2022/06/28 02:41:38;;;;;;;21.15;19.05;;;14.50;99.90;;;;;;5006816;28;20061;-73
2022/06/28 02:44:04;;;;;;;21.77;18.70;;;14.50;99.90;;;;;;5009656;28;20491;-73
2022/06/28 02:46:30;;;;;;;21.00;18.98;;;14.50;99.90;;;;;;5002351;28;20120;-73
2022/06/28 02:48:56;;;;;;;22.25;19.95;;;14.50;99.90;;;;;;5009335;28;20109;-73
2022/06/28 02:51:22;;;;;;;23.08;20.88;;;14.50;99.90;;;;;;5001109;28;20047;-73
2022/06/28 02:53:49;;;;;;;23.70;21.25;;;14.50;99.90;;;;;;5003421;28;20054;-73
2022/06/28 02:56:14;;;;;;;22.50;20.25;;;14.50;99.90;;;;;;5006230;28;20511;-74
2022/06/28 02:58:40;;;;;;;26.25;23.83;;;14.50;99.90;;;;;;5009683;28;20567;-73
2022/06/28 03:01:06;;;;;;;25.30;22.70;;;14.60;99.90;;;;;;5000082;28;20442;-73
2022/06/28 03:03:32;;;;;;;24.25;21.92;;;14.60;99.90;;;;;;4995938;28;20444;-73
2022/06/28 03:05:58;;;;;;;25.50;23.05;;;14.60;99.90;;;;;;5007682;28;20038;-73
2022/06/28 03:08:24;;;;;;;25.92;23.52;;;14.70;99.90;;;;;;5009356;28;20057;-73
2022/06/28 03:10:50;;;;;;;25.73;23.40;;;14.60;99.90;;;;;;5007088;28;20491;-73
2022/06/28 03:13:18;;;;;;;25.90;23.35;;;14.70;99.90;;;;;;5006538;28;20045;-73
2022/06/28 03:15:44;;;;;;;24.38;22.17;;;14.60;99.90;;;;;;5009341;28;20563;-73
2022/06/28 03:18:12;;;;;;;23.70;21.50;;;14.60;99.90;;;;;;5008305;28;20063;-74
2022/06/28 03:20:38;;;;;;;24.15;21.83;;;14.60;99.90;;;;;;5010232;28;20540;-73
2022/06/28 03:23:04;;;;;;;23.23;21.10;;;14.60;99.90;;;;;;5006163;28;20382;-73
2022/06/28 03:25:31;;;;;;;22.27;20.15;;;14.60;99.90;;;;;;5007951;28;20069;-73
2022/06/28 03:27:56;;;;;;;21.70;19.45;;;14.60;99.90;;;;;;5006210;28;20084;-73
2022/06/28 03:30:22;;;;;;;22.20;20.00;;;14.60;99.90;;;;;;5007196;28;20053;-74
2022/06/28 03:32:48;;;;;;;20.83;19.00;;;14.50;99.90;;;;;;5009456;28;20501;-74
2022/06/28 03:35:14;;;;;;;22.13;20.00;;;14.40;99.90;;;;;;5009656;28;20041;-74
2022/06/28 03:37:40;;;;;;;20.98;18.95;;;14.50;99.90;;;;;;5005588;28;20445;-73
2022/06/28 03:40:07;;;;;;;21.27;19.38;;;14.50;99.90;;;;;;5003546;28;20046;-73
2022/06/28 03:42:33;;;;;;;21.17;19.27;;;14.40;99.90;;;;;;5002727;28;20401;-73
2022/06/28 03:44:58;;;;;;;22.08;19.63;;;14.40;99.90;;;;;;5003996;28;20045;-73
2022/06/28 03:47:24;;;;;;;21.67;19.60;;;14.40;99.90;;;;;;5001510;28;20156;-74
2022/06/28 03:49:50;;;;;;;21.67;19.60;;;14.30;99.90;;;;;;5008459;28;20053;-74
2022/06/28 03:52:16;;;;;;;23.23;21.02;;;14.30;99.90;;;;;;5006580;28;20042;-73
2022/06/28 03:54:42;;;;;;;21.45;19.40;;;14.30;99.90;;;;;;5007478;28;20468;-74
2022/06/28 03:57:07;;;;;;;23.77;21.33;;;14.30;99.90;;;;;;5010950;28;20441;-74
2022/06/28 03:59:35;;;;;;;25.00;22.60;;;14.30;99.90;;;;;;5007750;28;20049;-74
2022/06/28 04:02:01;;;;;;;27.23;24.63;;;14.30;99.90;;;;;;5010593;28;20716;-75
2022/06/28 04:04:27;;;;;;;28.17;25.42;;;14.30;99.90;;;;;;5012960;28;20069;-74
2022/06/28 04:06:52;;;;;;;27.42;24.90;;;14.30;99.90;;;;;;5007368;28;20042;-74
2022/06/28 04:09:18;;;;;;;26.20;23.67;;;14.40;99.90;;;;;;5006887;28;20143;-74
2022/06/28 04:11:44;;;;;;;26.15;23.70;;;14.40;99.90;;;;;;5006954;28;20069;-74
2022/06/28 04:14:13;;;;;;;25.77;23.58;;;14.40;99.90;;;;;;5006498;28;20686;-74
2022/06/28 04:16:41;;;;;;;26.80;24.45;;;14.50;99.90;;;;;;4999572;28;20450;-74
2022/06/28 04:19:07;;;;;;;;;;;14.50;99.90;;;;;;4991529;28;20049;-74
2022/06/28 04:21:33;;;;;;;29.58;26.63;;;14.50;99.90;;;;;;5008829;28;19963;-74
2022/06/28 04:23:59;;;;;;;28.50;26.00;;;14.50;99.90;;;;;;5000589;28;20077;-73
2022/06/28 04:26:25;;;;;;;29.35;26.52;;;14.50;99.90;;;;;;4994381;28;20034;-74
2022/06/28 04:28:51;;;;;;;31.55;28.35;;;14.50;99.90;;;;;;4989195;28;20672;-73
2022/06/28 04:31:17;;;;;;;30.38;27.52;;;14.50;99.90;;;;;;5007807;28;20053;-75
2022/06/28 04:33:43;;;;;;;29.25;26.63;;;14.50;99.90;;;;;;5006370;28;20088;-73
2022/06/28 04:36:10;;;;;;;29.23;26.50;;;14.50;99.90;;;;;;5004975;28;20054;-74
2022/06/28 04:38:35;;;;;;;32.53;29.38;;;14.60;99.90;;;;;;5005751;28;20087;-74
2022/06/28 04:41:01;;;;;;;36.92;33.33;;;14.60;99.90;;;;;;5005272;28;20461;-74
2022/06/28 04:43:26;;;;;;;33.78;30.42;;;14.70;99.90;;;;;;5005980;28;20592;-74
2022/06/28 04:45:52;;;;;;;31.90;28.73;;;14.70;99.90;;;;;;5008014;28;20132;-74
2022/06/28 04:48:18;;;;;;;31.20;28.23;;;14.80;99.90;;;;;;5005548;28;20173;-74
2022/06/28 04:50:43;;;;;;;31.35;28.33;;;14.80;99.90;;;;;;5005821;28;20041;-74
2022/06/28 04:53:09;;;;;;;28.90;25.92;;;14.80;99.90;;;;;;5005574;28;20593;-75
2022/06/28 04:55:35;;;;;;;28.17;25.20;;;14.90;99.90;;;;;;5005235;28;20050;-75
2022/06/28 04:58:00;;;;;;;29.80;26.95;;;15.00;99.90;;;;;;5005842;28;20054;-74
2022/06/28 05:00:28;;;;;;;28.27;25.35;;;15.00;99.90;;;;;;5004408;28;20746;-75
2022/06/28 05:02:54;;;;;;;28.65;25.90;;;15.00;99.90;;;;;;5004343;28;20484;-76
2022/06/28 05:05:20;;;;;;;28.08;25.15;;;15.10;99.90;;;;;;5008117;28;20057;-75
2022/06/28 05:07:45;;;;;;;29.25;26.48;;;15.20;99.90;;;;;;5009341;28;20045;-76
2022/06/28 05:10:11;;;;;;;29.33;26.63;;;15.20;99.90;;;;;;5001917;28;20049;-71
2022/06/28 05:12:37;;;;;;;33.80;30.60;;;15.30;99.90;;;;;;5000073;28;20060;-73
2022/06/28 05:15:03;;;;;;;32.95;29.40;;;15.30;99.90;;;;;;5005294;28;20053;-71
2022/06/28 05:17:28;;;;;;;38.08;33.97;;;15.40;99.90;;;;;;5004446;28;20377;-72
2022/06/28 05:19:55;;;;;;;35.40;29.77;;;15.40;99.90;;;;;;5007930;28;20045;-73
2022/06/28 05:22:21;;;;;;;31.02;27.75;;;15.40;99.90;;;;;;5008269;28;20042;-74
2022/06/28 05:24:46;;;;;;;28.30;25.58;;;15.50;99.90;;;;;;5011419;28;20053;-72
2022/06/28 05:27:12;;;;;;;27.42;24.83;;;15.60;99.90;;;;;;5009350;28;20120;-73
2022/06/28 05:29:38;;;;;;;24.63;22.23;;;15.60;99.90;;;;;;5007000;28;20052;-75
2022/06/28 05:32:04;;;;;;;26.23;23.63;;;15.70;99.90;;;;;;5003013;28;20042;-75
2022/06/28 05:34:29;;;;;;;24.27;21.77;;;15.80;99.90;;;;;;5008598;28;20100;-74
2022/06/28 05:36:55;;;;;;;22.85;20.75;;;15.80;99.90;;;;;;5009459;28;20557;-75
2022/06/28 05:39:21;;;;;;;22.60;20.33;;;15.90;99.90;;;;;;5009322;28;20082;-74
2022/06/28 05:41:47;;;;;;;22.08;19.98;;;15.90;99.90;;;;;;5007224;28;20038;-74
2022/06/28 05:44:14;;;;;;;21.38;19.10;;;16.00;99.90;;;;;;5004732;28;20169;-74
2022/06/28 05:46:40;;;;;;;22.40;20.08;;;16.00;99.90;;;;;;5000269;28;20541;-73
2022/06/28 05:49:07;;;;;;;22.65;20.30;;;16.10;99.90;;;;;;5005891;28;20052;-74
2022/06/28 05:51:33;;;;;;;21.67;19.50;;;16.20;99.90;;;;;;5008857;28;20156;-75
2022/06/28 05:53:59;;;;;;;19.88;18.08;;;16.20;99.90;;;;;;5003258;28;20498;-75
2022/06/28 05:56:24;;;;;;;20.65;18.45;;;16.30;99.90;;;;;;5007295;28;20386;-75
2022/06/28 05:58:50;;;;;;;19.42;17.52;;;16.30;99.90;;;;;;5010185;28;20604;-75
2022/06/28 06:01:16;;;;;;;19.88;17.98;;;16.30;99.90;;;;;;5002518;28;20409;-74
2022/06/28 06:03:42;;;;;;;19.60;17.38;;;16.40;99.90;;;;;;5000283;28;20374;-74
2022/06/28 06:06:07;;;;;;;18.50;16.70;;;16.50;99.90;;;;;;5000752;28;20075;-74
2022/06/28 06:08:35;;;;;;;17.70;15.57;;;16.50;99.90;;;;;;5008149;28;20064;-73
2022/06/28 06:11:07;;;;;;;20.48;16.23;;;16.50;99.90;;;;;;5005370;28;20135;-73
2022/06/28 06:13:36;;;;;;;18.33;16.42;;;16.60;99.90;;;;;;5008996;28;20056;-73
2022/06/28 06:16:02;;;;;;;18.92;17.00;;;16.60;99.90;;;;;;5004542;28;20083;-73
2022/06/28 06:18:28;;;;;;;19.27;17.10;;;16.60;99.90;;;;;;5004671;28;20050;-73
2022/06/28 06:20:53;;;;;;;21.15;17.58;;;16.60;99.90;;;;;;5003521;28;20050;-73
2022/06/28 06:23:19;;;;;;;20.83;17.35;;;16.60;99.90;;;;;;5007286;28;20377;-73
2022/06/28 06:25:45;;;;;;;20.63;16.73;;;16.70;99.90;;;;;;5008092;28;20052;-73
2022/06/28 06:28:10;;;;;;;18.00;16.02;;;16.80;99.90;;;;;;5006966;28;20061;-73
2022/06/28 06:30:36;;;;;;;17.48;15.68;;;16.90;99.90;;;;;;5004971;28;20911;-74
2022/06/28 06:33:03;;;;;;;19.02;15.50;;;17.00;99.90;;;;;;5004782;28;20049;-72
2022/06/28 06:35:32;;;;;;;19.70;15.85;;;17.00;99.90;;;;;;5005632;28;20050;-75
2022/06/28 06:38:00;;;;;;;18.45;16.42;;;17.20;99.90;;;;;;5001149;28;20043;-73
2022/06/28 06:40:30;;;;;;;18.05;16.15;;;17.20;99.90;;;;;;5005692;28;20050;-73
2022/06/28 06:42:56;;;;;;;16.88;15.18;;;17.30;99.90;;;;;;5005896;28;20072;-73
2022/06/28 06:45:22;;;;;;;17.73;14.15;;;17.40;99.90;;;;;;5005344;28;20061;-72
2022/06/28 06:47:48;;;;;;;16.17;11.82;;;17.50;99.90;;;;;;5010014;28;20093;-73
2022/06/28 06:50:14;;;;;;;12.57;9.10;;;17.60;99.90;;;;;;5006360;28;20427;-72
2022/06/28 06:52:40;;;;;;;13.20;8.75;;;17.60;99.90;;;;;;5006022;28;20547;-73
2022/06/28 06:55:06;;;;;;;12.05;8.52;;;17.70;99.90;;;;;;5006004;28;20397;-72
2022/06/28 06:57:33;;;;;;;13.25;8.13;;;17.70;99.90;;;;;;5007773;28;20565;-73
2022/06/28 06:59:58;;;;;;;13.85;8.07;;;17.80;99.90;;;;;;5009275;28;20068;-73
2022/06/28 07:02:24;;;;;;;14.10;7.13;;;17.90;99.90;;;;;;5004382;28;20029;-73
2022/06/28 07:04:49;;;;;;;12.32;8.35;;;17.90;99.90;;;;;;5006619;28;20494;-73
2022/06/28 07:07:15;;;;;;;11.90;6.45;;;18.00;99.90;;;;;;5004734;28;20046;-74
2022/06/28 07:09:41;;;;;;;12.23;6.55;;;18.00;99.90;;;;;;5005642;28;20519;-76
2022/06/28 07:12:07;;;;;;;11.63;7.00;;;18.10;99.90;;;;;;5008788;28;20034;-76
2022/06/28 07:14:32;;;;;;;16.65;7.05;;;18.20;99.90;;;;;;5008469;28;20084;-74
2022/06/28 07:16:58;;;;;;;11.10;7.05;;;18.30;99.90;;;;;;5009459;28;20433;-74
2022/06/28 07:19:24;;;;;;;11.52;6.00;;;18.30;99.90;;;;;;5008775;28;20562;-73
2022/06/28 07:21:49;;;;;;;12.23;5.57;;;18.40;99.90;;;;;;5005786;28;20713;-75
2022/06/28 07:24:17;;;;;;;11.85;5.68;;;18.40;99.90;;;;;;5002979;28;20232;-70
2022/06/28 07:26:42;;;;;;;;;;;18.40;99.90;;;;;;5004841;28;20050;-73
2022/06/28 07:29:08;;;;;;;12.45;5.68;;;18.50;99.90;;;;;;5003770;28;19929;-72
2022/06/28 07:31:37;;;;;;;15.52;5.78;;;18.50;99.90;;;;;;5009522;28;20167;-72
2022/06/28 07:34:02;;;;;;;13.77;6.63;;;18.60;99.90;;;;;;5005563;28;20595;-71
2022/06/28 07:36:28;;;;;;;12.88;6.35;;;18.70;99.90;;;;;;4997995;28;20041;-70
2022/06/28 07:38:54;;;;;;;12.35;5.40;;;18.80;99.90;;;;;;4999349;28;20034;-71
2022/06/28 07:41:23;;;;;;;10.05;5.10;;;18.90;99.90;;;;;;4994542;28;20052;-70
2022/06/28 07:43:52;;;;;;;12.82;5.22;;;18.90;99.90;;;;;;5007946;28;20084;-70
2022/06/28 07:46:22;;;;;;;13.30;5.32;;;18.90;99.90;;;;;;5009669;28;20046;-70
2022/06/28 07:48:50;;;;;;;9.52;5.45;;;18.90;99.90;;;;;;5009162;28;20045;-70
2022/06/28 07:54:00;;;;;;;13.68;5.00;;;19.00;99.90;;;;;;5007940;28;20061;-70
2022/06/28 07:56:26;;;;;;;13.93;5.50;;;19.10;99.90;;;;;;5008271;28;20099;-71
2022/06/28 07:58:51;;;;;;;12.73;5.13;;;19.20;99.90;;;;;;5008098;28;20062;-71
2022/06/28 08:01:17;;;;;;;15.18;4.90;;;19.40;99.90;;;;;;5009261;28;20096;-70
2022/06/28 08:03:43;;;;;;;9.25;4.43;;;19.50;99.90;;;;;;5009110;28;20134;-70
2022/06/28 08:06:09;;;;;;;15.60;6.05;;;19.60;99.90;;;;;;5008787;28;20100;-70
2022/06/28 08:08:34;;;;;;;12.65;6.03;;;19.80;99.90;;;;;;5007292;28;20046;-70
2022/06/28 08:11:00;;;;;;;10.48;4.68;;;19.80;99.90;;;;;;5007997;28;20054;-70
2022/06/28 08:13:26;;;;;;;8.98;3.80;;;19.70;99.90;;;;;;5006857;28;20034;-70
2022/06/28 08:15:52;;;;;;;12.52;4.25;;;19.70;99.90;;;;;;5008791;28;20081;-70
2022/06/28 08:18:18;;;;;;;8.82;3.78;;;19.70;99.90;;;;;;5008040;28;20051;-70
2022/06/28 08:20:44;;;;;;;10.88;3.50;;;19.70;99.90;;;;;;5009705;28;20099;-70
2022/06/28 08:23:09;;;;;;;11.10;3.45;;;19.70;99.90;;;;;;5008441;28;20277;-70
2022/06/28 08:25:41;;;;;;;9.63;4.30;;;19.80;99.90;;;;;;5008613;28;20042;-70
2022/06/28 08:28:07;;;;;;;9.73;4.70;;;19.90;99.90;;;;;;5008575;28;20041;-70
2022/06/28 08:30:33;;;;;;;9.13;3.90;;;20.00;99.90;;;;;;5007112;28;20389;-70
2022/06/28 08:32:59;;;;;;;9.55;4.15;;;20.10;99.90;;;;;;5006459;28;20038;-70
2022/06/28 08:35:24;;;;;;;7.85;3.60;;;20.00;99.90;;;;;;5007911;28;20734;-70
2022/06/28 08:37:50;;;;;;;11.07;4.25;;;20.00;99.90;;;;;;5008983;28;20060;-70
2022/06/28 08:40:16;;;;;;;6.38;3.20;;;20.10;99.90;;;;;;5006826;28;20057;-70
2022/06/28 08:42:48;;;;;;;6.65;3.72;;;20.10;99.90;;;;;;5009145;28;20050;-70
2022/06/28 08:45:16;;;;;;;9.95;5.10;;;20.20;99.90;;;;;;5008300;28;20049;-70
2022/06/28 08:47:43;;;;;;;11.27;4.18;;;20.20;99.90;;;;;;5006671;28;20400;-70
2022/06/28 08:50:19;;;;;;;6.22;2.78;;;20.20;99.90;;;;;;5009127;28;20065;-70
2022/06/28 08:52:46;;;;;;;6.90;3.00;;;20.30;99.90;;;;;;5009348;28;20046;-70
2022/06/28 08:55:13;;;;;;;;;;;20.30;99.90;;;;;;5008404;28;20050;-70
2022/06/28 08:57:41;;;;;;;5.47;2.58;;;20.40;99.90;;;;;;5010530;28;19925;-70
2022/06/28 09:00:09;;;;;;;8.13;3.08;;;20.50;99.90;;;;;;5011352;28;20046;-70
2022/06/28 09:02:34;;;;;;;8.73;4.10;;;20.60;99.90;;;;;;5011358;28;20057;-70
2022/06/28 09:05:01;;;;;;;7.25;4.10;;;20.60;99.90;;;;;;5011060;28;20048;-70
2022/06/28 09:07:27;;;;;;;8.50;3.63;;;20.60;99.90;;;;;;5010723;28;20092;-70
2022/06/28 09:09:53;;;;;;;7.00;3.20;;;20.60;99.90;;;;;;5012653;28;20128;-70
2022/06/28 09:12:20;;;;;;;6.32;2.67;;;20.60;99.90;;;;;;5012349;28;20129;-70
2022/06/28 09:14:47;;;;;;;6.20;2.70;;;20.60;99.90;;;;;;5011981;28;20077;-70
2022/06/28 09:17:24;;;;;;;6.82;3.28;;;20.70;99.90;;;;;;5012314;28;20576;-70
2022/06/28 09:20:05;;;;;;;6.32;2.70;;;20.80;99.90;;;;;;5011802;28;20061;-70
2022/06/28 09:22:43;;;;;;;7.68;3.05;;;20.90;99.90;;;;;;5010938;28;20497;-70
2022/06/28 09:25:24;;;;;;;5.22;2.55;;;21.00;99.90;;;;;;5010821;28;20052;-70
2022/06/28 09:27:55;;;;;;;4.82;2.08;;;21.00;99.90;;;;;;5011506;28;20053;-70
2022/06/28 09:30:22;;;;;;;8.13;2.90;;;20.90;99.90;;;;;;5009868;28;20086;-70
2022/06/28 09:32:48;;;;;;;6.32;3.03;;;20.90;99.90;;;;;;5008818;28;20049;-71
2022/06/28 09:35:14;;;;;;;7.43;3.10;;;21.00;99.90;;;;;;5010903;28;20056;-73
2022/06/28 09:37:52;;;;;;;5.85;3.25;;;21.10;99.90;;;;;;5011632;28;20070;-73
2022/06/28 09:40:22;;;;;;;6.25;3.05;;;21.20;99.90;;;;;;5009718;28;20540;-73
2022/06/28 09:43:08;;;;;;;7.65;3.00;;;21.20;99.90;;;;;;5009864;28;20054;-73
2022/06/28 09:45:35;;;;;;;5.65;2.75;;;21.30;99.90;;;;;;5010311;28;20041;-73
2022/06/28 09:48:03;;;;;;;5.03;2.53;;;21.40;99.90;;;;;;5007283;28;20045;-73
2022/06/28 09:50:31;;;;;;;6.55;2.50;;;21.50;99.90;;;;;;5009064;28;20415;-73
2022/06/28 09:52:59;;;;;;;4.88;2.50;;;21.60;99.90;;;;;;5010068;28;20073;-73
2022/06/28 09:55:30;;;;;;;4.85;2.65;;;21.70;99.90;;;;;;5010048;28;20060;-73
2022/06/28 09:57:58;;;;;;;5.13;2.90;;;21.80;99.90;;;;;;5009744;28;20042;-73
2022/06/28 10:00:24;;;;;;;6.72;2.70;;;21.90;99.90;;;;;;5010176;28;20054;-73
2022/06/28 10:02:54;;;;;;;4.82;2.53;;;22.00;99.90;;;;;;5011440;28;20129;-73
2022/06/28 10:05:20;;;;;;;6.10;3.15;;;22.00;99.90;;;;;;5008914;28;20060;-73
2022/06/28 10:07:46;;;;;;;4.95;2.63;;;22.10;99.90;;;;;;5011125;28;20037;-73
2022/06/28 10:10:12;;;;;;;6.63;3.00;;;22.10;99.90;;;;;;5010609;28;20045;-72
2022/06/28 10:15:26;;;;;;;4.43;1.70;;;21.80;99.90;;;;;;5010951;28;20085;-73
2022/06/28 10:17:57;;;;;;;7.07;2.00;;;21.80;99.90;;;;;;5011121;28;20046;-73
2022/06/28 10:20:32;;;;;;;4.78;1.85;;;21.90;99.90;;;;;;5011440;28;20096;-73
2022/06/28 10:23:37;;;;;;;6.25;2.10;;;21.90;99.90;;;;;;5010695;28;20042;-72
2022/06/28 10:26:20;;;;;;;3.70;1.80;;;22.00;99.90;;;;;;5010094;28;20436;-73
2022/06/28 10:29:05;;;;;;;6.97;1.80;;;22.10;99.20;;;;;;5009785;28;20073;-73
2022/06/28 10:31:37;;;;;;;7.53;1.90;;;22.20;97.90;;;;;;5010689;28;20056;-73
2022/06/28 10:34:07;;;;;;;3.90;1.90;;;22.20;98.50;;;;;;5008251;28;20477;-73
2022/06/28 10:36:51;;;;;;;3.83;1.30;;;22.20;97.40;;;;;;5007243;28;20061;-72
2022/06/28 10:39:19;;;;;;;4.05;1.40;;;22.20;91.90;;;;;;5006172;28;20121;-73
2022/06/28 10:42:13;;;;;;;6.93;2.40;;;22.20;94.40;;;;;;5005927;28;20045;-73
2022/06/28 10:44:39;;;;;;;4.13;1.88;;;22.30;97.20;;;;;;5002045;28;20045;-73
2022/06/28 10:47:04;;;;;;;4.72;1.77;;;22.40;96.90;;;;;;5009050;28;20657;-74
2022/06/28 10:49:57;;;;;;;3.15;1.65;;;22.50;98.70;;;;;;5011170;28;20045;-73
2022/06/28 10:52:32;;;;;;;5.22;1.70;;;22.70;96.20;;;;;;5001669;28;20050;-72
2022/06/28 10:54:58;;;;;;;3.65;1.63;;;22.80;93.60;;;;;;4998085;28;20129;-73
2022/06/28 10:57:28;;;;;;;5.22;1.40;;;22.80;94.90;;;;;;5006661;28;20132;-74
2022/06/28 11:00:00;;;;;;;3.67;1.20;;;22.90;92.80;;;;;;5005759;28;20064;-75
2022/06/28 11:02:50;;;;;;;3.28;1.08;;;22.90;95.10;;;;;;4996136;28;20072;-73
2022/06/28 11:05:21;;;;;;;3.67;1.67;;;23.00;93.90;;;;;;5004148;28;20503;-74
2022/06/28 11:07:58;;;;;;;5.07;1.40;;;23.10;92.30;;;;;;5005910;28;20041;-72
2022/06/28 11:10:24;;;;;;;4.32;1.15;;;23.20;88.10;;;;;;5005464;28;20045;-73
2022/06/28 11:12:50;;;;;;;5.07;1.48;;;23.30;92.20;;;;;;5003765;28;20041;-73
2022/06/28 11:15:28;;;;;;;4.32;1.15;;;23.40;90.70;;;;;;5005628;28;20103;-73
2022/06/28 11:17:53;;;;;;;3.90;1.42;;;23.50;78.10;;;;;;5006455;28;20057;-73
2022/06/28 11:20:24;;;;;;;3.58;1.20;;;23.40;79.70;;;;;;5009530;28;20465;-73
2022/06/28 11:22:51;;;;;;;4.97;1.33;;;23.50;83.10;;;;;;5008207;28;20042;-73
2022/06/28 11:25:24;;;;;;;3.75;1.02;;;23.50;81.20;;;;;;5009022;28;20045;-73
2022/06/28 11:27:56;;;;;;;4.70;1.30;;;23.50;84.80;;;;;;5008277;28;20088;-73
2022/06/28 11:30:26;;;;;;;3.63;1.50;;;23.60;87.70;;;;;;5008164;28;20061;-73
2022/06/28 11:32:55;;;;;;;4.53;1.40;;;23.60;89.90;;;;;;5004861;28;20073;-73
2022/06/28 11:35:25;;;;;;;3.60;1.33;;;23.70;91.10;;;;;;4998865;28;20118;-73
2022/06/28 11:37:54;;;;;;;4.45;1.25;;;23.80;89.40;;;;;;5006566;28;20042;-73
2022/06/28 11:40:24;;;;;;;3.95;1.27;;;23.80;85.90;;;;;;5008649;28;20100;-73
2022/06/28 11:43:08;;;;;;;5.05;1.40;;;24.00;83.80;;;;;;5001770;28;20046;-73
2022/06/28 11:45:43;;;;;;;4.55;1.52;;;24.10;83.20;;;;;;5000041;28;20077;-72
2022/06/28 11:48:10;;;;;;;5.35;1.98;;;24.00;79.70;;;;;;5003556;28;20046;-73
2022/06/28 11:50:39;;;;;;;;;;;24.00;73.70;;;;;;5005760;28;20057;-70
2022/06/28 11:53:05;;;;;;;39.35;11.98;;;23.90;72.40;;;;;;5006408;28;19968;-72
2022/06/28 11:55:38;;;;;;;4.30;1.52;;;23.80;76.80;;;;;;5004742;28;20042;-73
2022/06/28 11:58:13;;;;;;;3.83;1.40;;;23.60;69.10;;;;;;5003397;28;20054;-73
2022/06/28 12:00:39;;;;;;;4.25;1.10;;;23.50;67.90;;;;;;5006245;28;20054;-72
2022/06/28 12:03:05;;;;;;;6.45;1.60;;;23.60;84.50;;;;;;5003876;28;20042;-74
2022/06/28 12:05:35;;;;;;;5.57;1.60;;;23.70;78.20;;;;;;5008225;28;20081;-74
2022/06/28 12:08:02;;;;;;;5.28;1.70;;;23.80;77.40;;;;;;5008519;28;20045;-74
2022/06/28 12:10:31;;;;;;;4.80;1.70;;;23.90;76.10;;;;;;4998839;28;20056;-70
2022/06/28 12:12:59;;;;;;;4.65;1.33;;;24.00;66.10;;;;;;5009740;28;20042;-73
2022/06/28 12:15:30;;;;;;;4.20;1.38;;;23.90;65.70;;;;;;5002551;28;20375;-72
2022/06/28 12:18:05;;;;;;;4.10;1.10;;;23.80;71.50;;;;;;5005009;28;20049;-71
2022/06/28 12:20:32;;;;;;;5.63;1.45;;;24.00;74.90;;;;;;5003921;28;20064;-71
2022/06/28 12:23:04;;;;;;;9.88;2.78;;;24.10;77.10;;;;;;5006680;28;20034;-71
2022/06/28 12:25:30;;;;;;;8.45;2.70;;;24.40;83.00;;;;;;5006939;28;20084;-72
2022/06/28 12:27:56;;;;;;;4.75;1.50;;;24.50;78.20;;;;;;5007805;28;20048;-71
2022/06/28 12:30:22;;;;;;;6.53;1.45;;;24.70;71.70;;;;;;5005123;28;20959;-72
2022/06/28 12:32:48;;;;;;;6.53;1.92;;;24.80;74.10;;;;;;5010071;28;20412;-72
2022/06/28 12:35:16;;;;;;;6.68;1.40;;;24.90;70.60;;;;;;5008783;28;20050;-72
2022/06/28 12:37:42;;;;;;;5.93;1.80;;;24.90;70.50;;;;;;5007590;28;20053;-70
2022/06/28 12:40:10;;;;;;;6.22;1.33;;;24.90;65.90;;;;;;5006183;28;20197;-74
2022/06/28 12:42:36;;;;;;;4.43;1.23;;;24.90;72.70;;;;;;5009554;28;20136;-73
2022/06/28 12:45:03;;;;;;;4.60;1.47;;;25.00;68.00;;;;;;5009475;28;20077;-74
2022/06/28 12:47:30;;;;;;;;;;;25.10;67.50;;;;;;5006835;28;20045;-72
2022/06/28 12:49:56;;;;;;;5.68;1.48;;;25.10;72.30;;;;;;5011375;28;19922;-72
2022/06/28 12:52:22;;;;;;;4.93;1.30;;;25.10;70.10;;;;;;5009401;28;20085;-71